createdAt,value
2018-03-03T00:00:20.038Z,74.60
2018-03-03T00:02:46.295Z,74.60
2018-03-03T00:05:12.553Z,75.70
2018-03-03T00:07:38.785Z,76.00
2018-03-03T00:10:05.018Z,75.70
2018-03-03T00:12:31.627Z,75.00
2018-03-03T00:14:57.877Z,75.00
2018-03-03T00:17:24.999Z,75.20
2018-03-03T00:19:51.233Z,75.90
2018-03-03T00:22:23.642Z,75.60
2018-03-03T00:24:50.206Z,74.30
2018-03-03T00:27:16.447Z,74.30
2018-03-03T00:29:42.680Z,74.50
2018-03-03T00:32:08.923Z,76.20
2018-03-03T00:34:35.153Z,77.00
2018-03-03T00:37:01.392Z,75.50
2018-03-03T00:39:27.625Z,75.10
2018-03-03T00:41:53.849Z,75.20
2018-03-03T00:44:20.104Z,75.00
2018-03-03T00:46:46.307Z,75.30
2018-03-03T00:49:12.541Z,75.20
2018-03-03T00:51:38.770Z,75.30
2018-03-03T00:54:05.018Z,74.70
2018-03-03T00:56:31.224Z,74.30
2018-03-03T00:58:57.431Z,74.10
2018-03-03T01:01:23.927Z,75.10
2018-03-03T01:03:50.134Z,76.60
2018-03-03T01:06:16.373Z,77.10
2018-03-03T01:08:42.609Z,77.50
2018-03-03T01:11:08.829Z,76.70
2018-03-03T01:13:35.057Z,76.30
2018-03-03T01:16:01.298Z,75.70
2018-03-03T01:18:27.555Z,75.60
2018-03-03T01:20:53.810Z,75.50
2018-03-03T01:23:20.017Z,75.70
2018-03-03T01:25:46.210Z,75.90
2018-03-03T01:28:12.425Z,75.50
2018-03-03T01:30:38.621Z,75.60
2018-03-03T01:33:04.864Z,75.90
2018-03-03T01:35:31.470Z,75.10
2018-03-03T01:37:57.696Z,75.10
2018-03-03T01:40:23.931Z,74.10
2018-03-03T01:42:50.151Z,74.40
2018-03-03T01:45:16.400Z,74.50
2018-03-03T01:47:42.650Z,74.40
2018-03-03T01:50:08.858Z,74.90
2018-03-03T01:52:35.063Z,74.50
2018-03-03T01:55:01.253Z,74.50
2018-03-03T01:57:27.497Z,74.50
2018-03-03T01:59:53.715Z,74.20
2018-03-03T02:02:19.907Z,74.70
2018-03-03T02:04:46.953Z,75.60
2018-03-03T02:07:13.520Z,75.50
2018-03-03T02:09:39.714Z,75.50
2018-03-03T02:12:06.325Z,76.00
2018-03-03T02:14:32.552Z,76.00
2018-03-03T02:16:58.760Z,76.20
2018-03-03T02:19:24.989Z,75.90
2018-03-03T02:21:51.220Z,76.20
2018-03-03T02:24:17.453Z,75.60
2018-03-03T02:26:43.692Z,74.70
2018-03-03T02:29:09.905Z,75.10
2018-03-03T02:31:36.186Z,75.50
2018-03-03T02:34:02.423Z,75.60
2018-03-03T02:36:28.647Z,76.20
2018-03-03T02:38:54.889Z,76.00
2018-03-03T02:41:21.126Z,76.10
2018-03-03T02:43:47.347Z,76.40
2018-03-03T02:46:13.573Z,77.30
2018-03-03T02:48:39.813Z,77.50
2018-03-03T02:51:06.023Z,77.40
2018-03-03T02:53:32.272Z,77.00
2018-03-03T02:55:58.471Z,76.90
2018-03-03T02:58:24.720Z,77.00
2018-03-03T03:00:50.917Z,76.60
2018-03-03T03:03:17.158Z,76.20
2018-03-03T03:05:43.392Z,76.90
2018-03-03T03:08:09.615Z,76.90
2018-03-03T03:10:35.847Z,77.40
2018-03-03T03:13:02.071Z,77.90
2018-03-03T03:15:28.323Z,78.20
2018-03-03T03:17:54.809Z,78.80
2018-03-03T03:20:21.398Z,78.80
2018-03-03T03:22:47.598Z,78.70
2018-03-03T03:25:13.830Z,78.50
2018-03-03T03:27:40.083Z,78.90
2018-03-03T03:30:06.296Z,79.20
2018-03-03T03:32:32.885Z,79.40
2018-03-03T03:34:59.094Z,79.70
2018-03-03T03:37:25.328Z,79.90
2018-03-03T03:39:51.551Z,79.70
2018-03-03T03:42:17.809Z,78.70
2018-03-03T03:44:44.374Z,78.60
2018-03-03T03:47:10.631Z,78.60
2018-03-03T03:49:36.844Z,79.60
2018-03-03T03:52:03.097Z,79.90
2018-03-03T03:54:29.362Z,80.40
2018-03-03T03:56:55.581Z,80.40
2018-03-03T03:59:21.825Z,80.60
2018-03-03T04:01:48.043Z,80.90
2018-03-03T04:04:14.276Z,81.50
2018-03-03T04:06:40.481Z,81.10
2018-03-03T04:09:06.722Z,80.90
2018-03-03T04:11:32.928Z,81.10
2018-03-03T04:13:59.169Z,82.30
2018-03-03T04:16:25.700Z,82.60
2018-03-03T04:18:51.917Z,82.80
2018-03-03T04:21:18.126Z,82.40
2018-03-03T04:23:44.417Z,81.60
2018-03-03T04:26:10.652Z,81.10
2018-03-03T04:28:36.878Z,81.90
2018-03-03T04:31:03.474Z,81.60
2018-03-03T04:33:29.734Z,80.70
2018-03-03T04:35:55.959Z,80.50
2018-03-03T04:38:22.607Z,82.40
2018-03-03T04:40:48.805Z,82.40
2018-03-03T04:43:15.075Z,82.30
2018-03-03T04:45:41.575Z,81.60
2018-03-03T04:48:07.833Z,81.20
2018-03-03T04:50:34.057Z,81.20
2018-03-03T04:53:00.324Z,81.40
2018-03-03T04:55:26.593Z,80.40
2018-03-03T04:57:53.253Z,80.70
2018-03-03T05:00:25.450Z,80.70
2018-03-03T05:03:07.507Z,81.20
2018-03-03T05:05:52.608Z,80.80
2018-03-03T05:08:24.810Z,80.90
2018-03-03T05:10:52.044Z,81.00
2018-03-03T05:13:24.226Z,81.30
2018-03-03T05:16:02.366Z,80.90
2018-03-03T05:18:34.841Z,79.40
2018-03-03T05:21:16.027Z,79.40
2018-03-03T05:23:59.103Z,80.00
2018-03-03T05:26:46.450Z,80.80
2018-03-03T05:29:18.824Z,81.00
2018-03-03T05:31:51.515Z,81.60
2018-03-03T05:34:23.921Z,81.60
2018-03-03T05:36:56.233Z,81.10
2018-03-03T05:39:43.336Z,80.50
2018-03-03T05:42:15.547Z,80.20
2018-03-03T05:44:47.810Z,80.20
2018-03-03T05:47:35.738Z,79.40
2018-03-03T05:50:22.190Z,79.90
2018-03-03T05:52:54.413Z,79.90
2018-03-03T05:55:37.907Z,80.10
2018-03-03T05:58:20.036Z,80.10
2018-03-03T06:00:52.309Z,80.50
2018-03-03T06:03:33.471Z,79.60
2018-03-03T06:06:06.566Z,79.40
2018-03-03T06:08:47.034Z,80.40
2018-03-03T06:11:13.256Z,80.50
2018-03-03T06:13:39.514Z,80.40
2018-03-03T06:16:05.750Z,79.40
2018-03-03T06:18:32.078Z,80.20
2018-03-03T06:20:58.336Z,80.10
2018-03-03T06:23:24.576Z,79.90
2018-03-03T06:25:50.847Z,79.10
2018-03-03T06:28:17.488Z,78.30
2018-03-03T06:30:43.727Z,78.30
2018-03-03T06:33:09.990Z,78.00
2018-03-03T06:35:36.235Z,79.10
2018-03-03T06:38:02.534Z,79.10
2018-03-03T06:40:28.749Z,78.80
2018-03-03T06:42:54.940Z,78.50
2018-03-03T06:45:21.578Z,78.10
2018-03-03T06:47:47.809Z,77.80
2018-03-03T06:50:14.006Z,78.40
2018-03-03T06:52:40.250Z,77.80
2018-03-03T06:55:06.457Z,77.70
2018-03-03T06:57:32.672Z,79.20
2018-03-03T06:59:58.936Z,79.70
2018-03-03T07:02:25.182Z,79.90
2018-03-03T07:04:51.795Z,78.40
2018-03-03T07:07:18.023Z,78.40
2018-03-03T07:09:44.250Z,79.00
2018-03-03T07:12:10.520Z,78.70
2018-03-03T07:14:51.735Z,77.90
2018-03-03T07:17:17.990Z,77.90
2018-03-03T07:19:44.237Z,78.80
2018-03-03T07:22:10.457Z,78.30
2018-03-03T07:24:36.682Z,77.40
2018-03-03T07:27:02.947Z,77.90
2018-03-03T07:29:29.181Z,77.20
2018-03-03T07:31:55.391Z,77.50
2018-03-03T07:34:21.647Z,77.10
2018-03-03T07:36:47.902Z,77.50
2018-03-03T07:39:14.904Z,76.70
2018-03-03T07:41:41.162Z,76.40
2018-03-03T07:44:07.420Z,76.70
2018-03-03T07:46:33.614Z,76.90
2018-03-03T07:48:59.838Z,76.00
2018-03-03T07:51:26.130Z,75.70
2018-03-03T07:53:52.702Z,75.90
2018-03-03T07:56:18.934Z,75.90
2018-03-03T07:58:49.043Z,76.10
2018-03-03T08:01:15.282Z,76.50
2018-03-03T08:03:41.573Z,76.30
2018-03-03T08:06:08.161Z,75.40
2018-03-03T08:08:34.422Z,75.40
2018-03-03T08:11:00.686Z,75.80
2018-03-03T08:13:26.928Z,75.90
2018-03-03T08:15:53.165Z,76.40
2018-03-03T08:18:19.404Z,77.00
2018-03-03T08:20:45.628Z,76.90
2018-03-03T08:23:11.855Z,76.80
2018-03-03T08:25:38.094Z,76.60
2018-03-03T08:28:04.341Z,76.60
2018-03-03T08:30:30.548Z,76.20
2018-03-03T08:32:56.786Z,75.80
2018-03-03T08:35:23.020Z,76.00
2018-03-03T08:37:49.257Z,76.20
2018-03-03T08:40:15.495Z,76.30
2018-03-03T08:42:41.713Z,75.20
2018-03-03T08:45:07.946Z,75.30
2018-03-03T08:47:34.177Z,76.00
2018-03-03T08:50:00.409Z,75.70
2018-03-03T08:52:26.647Z,74.90
2018-03-03T08:54:52.884Z,74.40
2018-03-03T08:57:19.107Z,74.30
2018-03-03T08:59:45.375Z,74.30
2018-03-03T09:02:11.615Z,73.70
2018-03-03T09:04:37.817Z,73.20
2018-03-03T09:07:04.009Z,73.50
2018-03-03T09:09:30.241Z,73.60
2018-03-03T09:11:56.515Z,73.90
2018-03-03T09:14:22.745Z,74.10
2018-03-03T09:16:48.986Z,74.40
2018-03-03T09:19:15.231Z,74.20
2018-03-03T09:21:41.478Z,73.90
2018-03-03T09:24:08.068Z,73.30
2018-03-03T09:26:34.320Z,73.30
2018-03-03T09:29:00.581Z,73.30
2018-03-03T09:31:27.150Z,73.00
2018-03-03T09:33:53.388Z,73.00
2018-03-03T09:36:20.077Z,72.60
2018-03-03T09:38:46.662Z,72.50
2018-03-03T09:41:12.922Z,72.50
2018-03-03T09:43:39.215Z,72.70
2018-03-03T09:46:05.474Z,73.60
2018-03-03T09:48:31.717Z,73.70
2018-03-03T09:50:57.943Z,75.10
2018-03-03T09:53:24.206Z,74.40
2018-03-03T09:55:50.455Z,74.20
2018-03-03T09:58:16.692Z,73.20
2018-03-03T10:00:42.977Z,73.00
2018-03-03T10:03:09.254Z,72.20
2018-03-03T10:05:35.527Z,72.10
2018-03-03T10:08:01.728Z,71.80
2018-03-03T10:10:27.969Z,71.90
2018-03-03T10:12:54.220Z,71.50
2018-03-03T10:15:20.522Z,71.70
2018-03-03T10:17:46.821Z,71.10
2018-03-03T10:20:13.039Z,71.70
2018-03-03T10:22:39.619Z,71.90
2018-03-03T10:25:05.807Z,72.50
2018-03-03T10:27:32.034Z,72.50
2018-03-03T10:29:58.274Z,72.10
2018-03-03T10:32:24.518Z,71.40
2018-03-03T10:34:50.775Z,70.80
2018-03-03T10:37:17.402Z,69.10
2018-03-03T10:39:44.016Z,69.30
2018-03-03T10:42:10.588Z,69.30
2018-03-03T10:44:36.802Z,68.50
2018-03-03T10:47:09.874Z,67.20
2018-03-03T10:49:36.150Z,67.30
2018-03-03T10:52:02.768Z,67.30
2018-03-03T10:54:29.373Z,68.10
2018-03-03T10:56:56.067Z,68.10
2018-03-03T10:59:22.313Z,67.50
2018-03-03T11:01:48.570Z,67.40
2018-03-03T11:04:14.870Z,66.90
2018-03-03T11:06:41.108Z,67.90
2018-03-03T11:09:07.340Z,69.20
2018-03-03T11:11:33.610Z,69.40
2018-03-03T11:16:33.557Z,69.80
2018-03-03T11:18:59.758Z,69.80
2018-03-03T11:21:25.988Z,69.70
2018-03-03T11:23:52.282Z,69.70
2018-03-03T11:26:18.543Z,70.00
2018-03-03T11:28:44.741Z,69.50
2018-03-03T11:31:10.996Z,69.50
2018-03-03T11:33:37.210Z,70.70
2018-03-03T11:36:03.456Z,70.30
2018-03-03T11:38:29.684Z,69.30
2018-03-03T11:40:55.937Z,68.80
2018-03-03T11:43:22.169Z,68.50
2018-03-03T11:45:48.397Z,68.20
2018-03-03T11:48:14.610Z,68.30
2018-03-03T11:50:41.231Z,68.20
2018-03-03T11:53:07.432Z,68.20
2018-03-03T11:55:33.681Z,68.40
2018-03-03T11:57:59.922Z,68.00
2018-03-03T12:00:26.543Z,68.00
2018-03-03T12:02:52.827Z,68.00
2018-03-03T12:05:19.086Z,67.40
2018-03-03T12:07:45.333Z,66.70
2018-03-03T12:10:11.585Z,66.10
2018-03-03T12:12:37.834Z,66.00
2018-03-03T12:15:04.078Z,66.00
2018-03-03T12:17:30.314Z,65.90
2018-03-03T12:19:56.592Z,66.20
2018-03-03T12:22:23.165Z,65.30
2018-03-03T12:24:49.433Z,65.30
2018-03-03T12:27:15.687Z,65.30
2018-03-03T12:29:42.279Z,65.50
2018-03-03T12:32:08.511Z,65.50
2018-03-03T12:34:34.758Z,65.90
2018-03-03T12:37:01.021Z,65.30
2018-03-03T12:39:27.658Z,65.00
2018-03-03T12:41:54.266Z,64.20
2018-03-03T12:44:20.526Z,64.20
2018-03-03T12:46:46.795Z,63.00
2018-03-03T12:49:13.065Z,63.20
2018-03-03T12:51:39.708Z,61.60
2018-03-03T12:54:05.945Z,61.60
2018-03-03T12:56:32.146Z,61.70
2018-03-03T12:58:58.730Z,62.40
2018-03-03T13:01:24.981Z,63.60
2018-03-03T13:03:51.227Z,63.80
2018-03-03T13:06:17.473Z,64.00
2018-03-03T13:08:43.779Z,64.10
2018-03-03T13:11:10.008Z,64.00
2018-03-03T13:13:36.266Z,64.80
2018-03-03T13:16:02.863Z,65.30
2018-03-03T13:18:29.107Z,65.30
2018-03-03T13:20:55.370Z,64.80
2018-03-03T13:23:21.991Z,65.00
2018-03-03T13:25:48.248Z,65.00
2018-03-03T13:28:14.497Z,65.10
2018-03-03T13:30:40.715Z,65.80
2018-03-03T13:33:07.345Z,65.10
2018-03-03T13:35:33.928Z,64.80
2018-03-03T13:38:00.166Z,64.80
2018-03-03T13:40:26.471Z,64.10
2018-03-03T13:42:52.682Z,63.80
2018-03-03T13:45:19.418Z,64.10
2018-03-03T13:47:45.642Z,64.00
2018-03-03T13:50:12.284Z,64.50
2018-03-03T13:52:38.506Z,64.50
2018-03-03T13:55:04.747Z,65.20
2018-03-03T13:57:31.458Z,66.20
2018-03-03T13:59:57.670Z,65.40
2018-03-03T14:02:23.875Z,65.10
2018-03-03T14:04:50.482Z,64.80
2018-03-03T14:07:16.714Z,65.00
2018-03-03T14:09:42.927Z,65.60
2018-03-03T14:12:09.631Z,66.00
2018-03-03T14:14:35.855Z,66.30
2018-03-03T14:17:02.076Z,66.10
2018-03-03T14:19:28.321Z,66.00
2018-03-03T14:21:54.584Z,66.10
2018-03-03T14:24:20.835Z,67.50
2018-03-03T14:26:47.085Z,67.30
2018-03-03T14:29:13.367Z,67.80
2018-03-03T14:31:39.627Z,68.00
2018-03-03T14:34:05.919Z,67.80
2018-03-03T14:36:32.490Z,68.20
2018-03-03T14:38:58.742Z,68.20
2018-03-03T14:41:24.993Z,69.60
2018-03-03T14:43:51.277Z,70.50
2018-03-03T14:46:17.563Z,69.70
2018-03-03T14:48:43.778Z,69.50
2018-03-03T14:51:10.037Z,68.60
2018-03-03T14:53:36.270Z,68.00
2018-03-03T14:56:02.498Z,67.10
2018-03-03T14:58:28.743Z,67.40
2018-03-03T15:00:54.939Z,67.40
2018-03-03T15:03:21.208Z,67.10
2018-03-03T15:05:47.467Z,66.60
2018-03-03T15:08:13.684Z,67.40
2018-03-03T15:10:39.949Z,68.50
2018-03-03T15:13:07.005Z,68.10
2018-03-03T15:15:33.268Z,68.10
2018-03-03T15:17:59.527Z,68.70
2018-03-03T15:20:26.188Z,69.70
2018-03-03T15:22:52.895Z,69.30
2018-03-03T15:25:19.203Z,69.30
2018-03-03T15:27:45.508Z,69.20
2018-03-03T15:30:12.088Z,68.10
2018-03-03T15:32:38.343Z,68.10
2018-03-03T15:35:04.989Z,70.50
2018-03-03T15:37:32.018Z,71.30
2018-03-03T15:39:58.283Z,71.30
2018-03-03T15:42:24.567Z,71.80
2018-03-03T15:44:50.838Z,70.70
2018-03-03T15:47:17.074Z,70.90
2018-03-03T15:49:43.296Z,72.40
2018-03-03T15:52:09.573Z,73.30
2018-03-03T15:54:35.801Z,73.00
2018-03-03T15:57:02.041Z,72.70
2018-03-03T15:59:28.261Z,73.00
2018-03-03T16:01:54.518Z,72.70
2018-03-03T16:04:21.150Z,72.50
2018-03-03T16:06:47.384Z,72.50
2018-03-03T16:09:14.013Z,71.60
2018-03-03T16:11:40.303Z,71.60
2018-03-03T16:14:06.533Z,72.60
2018-03-03T16:16:32.790Z,72.90
2018-03-03T16:18:58.998Z,72.30
2018-03-03T16:21:25.251Z,72.70
2018-03-03T16:23:51.551Z,73.00
2018-03-03T16:26:17.819Z,73.00
2018-03-03T16:28:44.418Z,71.50
2018-03-03T16:31:10.709Z,71.50
2018-03-03T16:33:36.965Z,72.20
2018-03-03T16:36:03.537Z,72.70
2018-03-03T16:38:29.738Z,72.70
2018-03-03T16:40:55.980Z,73.30
2018-03-03T16:43:22.241Z,73.40
2018-03-03T16:45:48.842Z,72.70
2018-03-03T16:48:15.120Z,72.70
2018-03-03T16:50:41.624Z,72.50
2018-03-03T16:53:07.855Z,73.10
2018-03-03T16:55:34.076Z,73.30
2018-03-03T16:58:01.219Z,73.80
2018-03-03T17:00:27.454Z,73.70
2018-03-03T17:02:53.712Z,73.90
2018-03-03T17:05:19.966Z,73.90
2018-03-03T17:07:46.239Z,73.40
2018-03-03T17:10:12.454Z,73.40
2018-03-03T17:12:45.552Z,72.80
2018-03-03T17:15:11.781Z,72.20
2018-03-03T17:17:38.009Z,72.20
2018-03-03T17:20:04.266Z,72.90
2018-03-03T17:22:30.915Z,73.70
2018-03-03T17:24:57.145Z,73.80
2018-03-03T17:27:23.432Z,74.70
2018-03-03T17:29:49.661Z,75.60
2018-03-03T17:32:15.938Z,76.10
2018-03-03T17:34:42.132Z,76.00
2018-03-03T17:37:08.425Z,75.90
2018-03-03T17:39:34.661Z,76.40
2018-03-03T17:42:00.902Z,76.20
2018-03-03T17:44:27.136Z,76.10
2018-03-03T17:46:53.372Z,75.60
2018-03-03T17:49:19.629Z,75.80
2018-03-03T17:51:45.900Z,75.00
2018-03-03T17:54:12.160Z,75.10
2018-03-03T17:56:38.399Z,75.80
2018-03-03T17:59:04.642Z,76.40
2018-03-03T18:01:30.947Z,76.60
2018-03-03T18:03:57.188Z,75.90
2018-03-03T18:06:23.827Z,74.70
2018-03-03T18:08:50.439Z,74.50
2018-03-03T18:11:16.698Z,74.50
2018-03-03T18:13:43.322Z,74.30
2018-03-03T18:16:09.996Z,74.50
2018-03-03T18:18:36.227Z,74.50
2018-03-03T18:21:02.456Z,74.40
2018-03-03T18:23:28.726Z,75.10
2018-03-03T18:25:54.950Z,74.60
2018-03-03T18:28:21.211Z,74.50
2018-03-03T18:30:48.933Z,75.40
2018-03-03T18:33:15.155Z,75.40
2018-03-03T18:35:41.392Z,76.30
2018-03-03T18:38:07.702Z,76.30
2018-03-03T18:40:34.020Z,76.30
2018-03-03T18:43:00.285Z,76.30
2018-03-03T18:45:26.601Z,76.00
2018-03-03T18:47:52.863Z,75.70
2018-03-03T18:50:19.087Z,75.90
2018-03-03T18:52:45.366Z,75.60
2018-03-03T18:55:11.621Z,75.90
2018-03-03T18:57:37.862Z,76.20
2018-03-03T19:00:04.165Z,76.00
2018-03-03T19:02:30.417Z,75.70
2018-03-03T19:04:56.653Z,76.10
2018-03-03T19:07:22.940Z,76.10
2018-03-03T19:09:49.184Z,75.90
2018-03-03T19:12:15.458Z,75.90
2018-03-03T19:14:42.514Z,76.00
2018-03-03T19:17:09.193Z,76.70
2018-03-03T19:19:35.460Z,76.70
2018-03-03T19:22:01.725Z,76.40
2018-03-03T19:24:27.977Z,76.60
2018-03-03T19:26:54.238Z,76.60
2018-03-03T19:29:20.531Z,76.60
2018-03-03T19:31:46.746Z,76.60
2018-03-03T19:34:13.014Z,76.70
2018-03-03T19:36:39.270Z,76.30
2018-03-03T19:39:05.915Z,76.50
2018-03-03T19:41:32.527Z,76.10
2018-03-03T19:43:58.809Z,76.10
2018-03-03T19:46:32.136Z,77.10
2018-03-03T19:48:58.813Z,76.90
2018-03-03T19:51:25.442Z,77.10
2018-03-03T19:53:52.085Z,76.60
2018-03-03T19:56:18.754Z,76.60
2018-03-03T19:58:44.998Z,76.60
2018-03-03T20:01:11.279Z,76.80
2018-03-03T20:03:37.806Z,77.00
2018-03-03T20:06:04.043Z,77.20
2018-03-03T20:08:30.653Z,77.10
2018-03-03T20:10:56.932Z,77.10
2018-03-03T20:13:23.192Z,77.20
2018-03-03T20:15:51.436Z,77.50
2018-03-03T20:18:18.045Z,77.60
2018-03-03T20:20:44.718Z,77.90
2018-03-03T20:23:10.974Z,77.90
2018-03-03T20:25:37.256Z,78.20
2018-03-03T20:28:03.863Z,78.50
2018-03-03T20:30:30.173Z,78.50
2018-03-03T20:32:56.424Z,78.70
2018-03-03T20:35:22.698Z,78.80
2018-03-03T20:37:48.958Z,78.70
2018-03-03T20:40:15.225Z,78.80
2018-03-03T20:42:41.905Z,79.20
2018-03-03T20:45:08.241Z,79.20
2018-03-03T20:47:34.529Z,79.20
2018-03-03T20:50:01.171Z,79.80
2018-03-03T20:52:27.513Z,79.80
2018-03-03T20:54:53.813Z,80.00
2018-03-03T20:57:20.084Z,80.20
2018-03-03T20:59:46.839Z,80.60
2018-03-03T21:02:13.098Z,80.40
2018-03-03T21:04:39.364Z,80.20
2018-03-03T21:07:05.903Z,80.10
2018-03-03T21:09:32.266Z,80.40
2018-03-03T21:12:14.264Z,80.60
2018-03-03T21:14:40.814Z,80.60
2018-03-03T21:17:07.121Z,80.70
2018-03-03T21:19:33.483Z,80.70
2018-03-03T21:21:59.787Z,80.80
2018-03-03T21:24:26.064Z,80.90
2018-03-03T21:26:52.387Z,80.90
2018-03-03T21:29:18.617Z,80.80
2018-03-03T21:31:44.877Z,80.80
2018-03-03T21:34:11.159Z,80.20
2018-03-03T21:36:37.429Z,80.70
2018-03-03T21:39:04.107Z,80.60
2018-03-03T21:41:30.348Z,80.60
2018-03-03T21:43:56.584Z,80.80
2018-03-03T21:46:22.817Z,80.70
2018-03-03T21:48:49.034Z,80.70
2018-03-03T21:51:15.313Z,80.40
2018-03-03T21:53:41.886Z,80.50
2018-03-03T21:56:08.110Z,80.70
2018-03-03T21:58:34.308Z,80.50
2018-03-03T22:01:00.561Z,80.80
2018-03-03T22:03:26.799Z,80.40
2018-03-03T22:05:53.075Z,80.50
2018-03-03T22:08:19.701Z,81.10
2018-03-03T22:10:45.981Z,81.10
2018-03-03T22:13:12.249Z,81.10
2018-03-03T22:15:38.523Z,80.80
2018-03-03T22:18:05.123Z,80.20
2018-03-03T22:20:31.418Z,80.20
2018-03-03T22:22:57.687Z,80.40
2018-03-03T22:25:23.979Z,80.30
2018-03-03T22:27:50.215Z,81.20
2018-03-03T22:30:16.481Z,81.50
2018-03-03T22:32:43.151Z,81.10
2018-03-03T22:35:09.412Z,81.10
2018-03-03T22:37:35.738Z,81.60
2018-03-03T22:40:02.452Z,82.40
2018-03-03T22:42:28.682Z,82.40
2018-03-03T22:44:54.920Z,82.20
2018-03-03T22:47:28.024Z,82.20
2018-03-03T22:49:54.283Z,82.00
2018-03-03T22:52:20.874Z,81.60
2018-03-03T22:54:47.138Z,81.60
2018-03-03T22:57:13.366Z,81.60
2018-03-03T22:59:39.586Z,81.60
2018-03-03T23:02:05.874Z,81.20
2018-03-03T23:04:32.086Z,81.60
2018-03-03T23:06:58.356Z,81.60
2018-03-03T23:09:24.918Z,81.50
2018-03-03T23:11:51.120Z,81.20
2018-03-03T23:14:17.371Z,81.30
2018-03-03T23:16:44.028Z,81.50
2018-03-03T23:19:10.618Z,81.60
2018-03-03T23:21:36.871Z,81.60
2018-03-03T23:24:03.113Z,81.80
2018-03-03T23:26:29.710Z,81.60
2018-03-03T23:28:55.972Z,81.60
2018-03-03T23:31:22.217Z,81.60
2018-03-03T23:33:48.826Z,81.60
2018-03-03T23:36:15.029Z,81.60
2018-03-03T23:38:41.357Z,81.70
2018-03-03T23:41:07.582Z,81.80
2018-03-03T23:43:33.781Z,81.60
2018-03-03T23:46:00.019Z,81.90
2018-03-03T23:48:26.252Z,82.60
2018-03-03T23:50:52.478Z,82.70
2018-03-03T23:53:18.728Z,82.00
2018-03-03T23:55:44.946Z,82.40
2018-03-03T23:58:11.168Z,82.10
